Time;durP1;ratioP1;P1;durP2;ratioP2;P2;SDS_P1;SDS_P2;PMS_P1;PMS_P2;Temp;Humidity;BMP_temperature;BMP_pressure;BME280_temperature;BME280_humidity;BME280_pressure;Samples;Min_cycle;Max_cycle;Signal;HPM_P1;HPM_P2
2023/12/19 00:00:07;;;;;;;9.13;5.03;;;;;;;;;;4978154;28;20023;-65
2023/12/19 00:02:33;;;;;;;7.18;4.63;;;;;;;;;;4995874;28;20049;-66
2023/12/19 00:04:59;;;;;;;8.40;4.90;;;;;;;;;;4977893;28;20475;-65
2023/12/19 00:07:24;;;;;;;7.10;4.57;;;;;;;;;;4994555;28;20061;-65
2023/12/19 00:09:51;;;;;;;6.97;4.72;;;;;;;;;;4994754;28;20030;-66
2023/12/19 00:12:16;;;;;;;6.45;4.57;;;;;;;;;;4986394;28;20109;-65
2023/12/19 00:14:42;;;;;;;6.38;4.70;;;;;;;;;;4984573;28;20121;-65
2023/12/19 00:17:08;;;;;;;6.82;4.63;;;;;;;;;;4983167;28;20077;-65
2023/12/19 00:19:33;;;;;;;6.55;4.90;;;;;;;;;;4984592;28;20023;-65
2023/12/19 00:21:59;;;;;;;6.03;4.63;;;;;;;;;;4987013;28;20030;-65
2023/12/19 00:24:24;;;;;;;7.25;4.72;;;;;;;;;;4985756;28;20100;-65
2023/12/19 00:26:50;;;;;;;6.47;4.55;;;;;;;;;;4985769;28;20468;-65
2023/12/19 00:29:15;;;;;;;6.45;4.88;;;;;;;;;;4984939;28;20018;-64
2023/12/19 00:31:42;;;;;;;6.85;4.70;;;;;;;;;;4986704;28;20483;-65
2023/12/19 00:34:08;;;;;;;6.22;4.47;;;;;;;;;;4985006;28;20044;-65
2023/12/19 00:36:33;;;;;;;6.60;4.78;;;;;;;;;;4984750;28;20026;-65
2023/12/19 00:38:59;;;;;;;6.50;4.68;;;;;;;;;;4984880;28;20026;-64
2023/12/19 00:41:27;;;;;;;6.10;4.63;;;;;;;;;;4984567;28;20030;-65
2023/12/19 06:35:57;;;;;;;4.78;3.75;;;;;;;;;;5827802;23;20073;-73
2023/12/19 06:38:22;;;;;;;5.43;4.13;;;;;;;;;;4991010;28;20061;-74
2023/12/19 06:40:48;;;;;;;5.82;3.85;;;;;;;;;;4985306;28;20049;-67
2023/12/19 06:43:13;;;;;;;5.07;3.65;;;;;;;;;;4982728;28;20042;-66
2023/12/19 06:45:38;;;;;;;4.43;3.90;;;;;;;;;;4982547;28;20050;-67
2023/12/19 06:48:05;;;;;;;6.03;3.90;;;;;;;;;;4982702;28;20057;-69
2023/12/19 06:50:30;;;;;;;5.05;3.97;;;;;;;;;;4984952;28;20026;-73
2023/12/19 06:52:56;;;;;;;5.38;3.95;;;;;;;;;;4983918;28;20076;-67
2023/12/19 06:55:21;;;;;;;4.85;3.75;;;;;;;;;;4986250;28;20034;-72
2023/12/19 06:57:48;;;;;;;7.55;4.20;;;;;;;;;;4986275;28;20026;-68
2023/12/19 07:00:16;;;;;;;5.70;4.22;;;;;;;;;;4986341;28;20613;-73
2023/12/19 07:02:41;;;;;;;6.57;4.35;;;;;;;;;;4987698;28;20026;-68
2023/12/19 07:05:07;;;;;;;6.20;4.22;;;;;;;;;;4988289;28;20030;-74
2023/12/19 07:07:33;;;;;;;5.80;3.95;;;;;;;;;;4985477;28;20483;-68
2023/12/19 07:09:59;;;;;;;6.07;4.10;;;;;;;;;;4977052;28;20042;-67
2023/12/19 07:12:25;;;;;;;5.70;4.05;;;;;;;;;;4980916;28;20050;-73
2023/12/19 07:14:50;;;;;;;5.82;4.10;;;;;;;;;;4984368;28;20481;-67
2023/12/19 07:17:16;;;;;;;6.47;4.47;;;;;;;;;;4986084;28;20018;-68
2023/12/19 07:19:43;;;;;;;6.38;4.28;;;;;;;;;;4985528;28;20034;-67
2023/12/19 07:22:08;;;;;;;4.97;4.03;;;;;;;;;;4985291;28;20370;-67
2023/12/19 07:24:34;;;;;;;5.45;4.18;;;;;;;;;;4987735;28;20113;-67
2023/12/19 07:27:00;;;;;;;7.78;4.85;;;;;;;;;;4986067;28;20030;-66
2023/12/19 07:29:25;;;;;;;5.50;4.30;;;;;;;;;;4984994;28;20034;-67
2023/12/19 07:31:51;;;;;;;5.43;4.18;;;;;;;;;;4985608;28;20018;-73
2023/12/19 07:34:17;;;;;;;6.07;4.38;;;;;;;;;;4985239;28;20042;-71
2023/12/19 07:36:43;;;;;;;8.45;4.78;;;;;;;;;;4987215;28;20057;-68
2023/12/19 07:39:10;;;;;;;6.65;4.78;;;;;;;;;;4985039;28;20109;-67
2023/12/19 07:41:35;;;;;;;6.10;4.45;;;;;;;;;;4982591;28;20026;-67
2023/12/19 07:44:09;;;;;;;6.30;4.32;;;;;;;;;;4959225;28;20034;-67
2023/12/19 07:46:42;;;;;;;5.63;4.10;;;;;;;;;;4983897;28;20035;-66
2023/12/19 07:49:09;;;;;;;5.75;4.40;;;;;;;;;;4988080;28;20485;-66
2023/12/19 07:51:35;;;;;;;6.40;4.50;;;;;;;;;;4995860;28;20467;-71
2023/12/19 07:54:00;;;;;;;5.15;4.03;;;;;;;;;;4995926;28;20030;-67
2023/12/19 07:56:26;;;;;;;6.28;4.85;;;;;;;;;;4996164;28;20523;-68
2023/12/19 07:58:52;;;;;;;7.43;4.50;;;;;;;;;;4985571;28;20521;-68
2023/12/19 08:01:17;;;;;;;5.57;4.40;;;;;;;;;;4968032;28;20088;-65
2023/12/19 08:03:44;;;;;;;6.47;4.40;;;;;;;;;;4978469;28;20030;-67
2023/12/19 08:06:10;;;;;;;6.22;4.53;;;;;;;;;;4976827;28;20085;-64
2023/12/19 08:08:36;;;;;;;8.50;4.78;;;;;;;;;;4976150;28;20023;-64
2023/12/19 08:11:01;;;;;;;6.28;4.50;;;;;;;;;;4976111;28;20030;-64
2023/12/19 08:13:27;;;;;;;7.15;4.47;;;;;;;;;;4986462;28;20027;-65
2023/12/19 08:15:52;;;;;;;6.20;4.78;;;;;;;;;;4995623;28;20402;-64
2023/12/19 08:18:19;;;;;;;6.20;4.65;;;;;;;;;;4990534;28;20459;-65
2023/12/19 08:20:45;;;;;;;7.32;4.63;;;;;;;;;;4995342;28;20018;-65
2023/12/19 08:23:10;;;;;;;13.05;4.82;;;;;;;;;;4995197;28;20117;-67
2023/12/19 08:25:37;;;;;;;10.77;4.90;;;;;;;;;;4989273;28;20029;-68
2023/12/19 08:28:04;;;;;;;5.45;4.20;;;;;;;;;;4975782;28;20433;-66
2023/12/19 08:30:30;;;;;;;9.43;4.63;;;;;;;;;;4975609;28;20541;-66
2023/12/19 08:32:56;;;;;;;6.75;4.70;;;;;;;;;;4975833;28;20041;-66
2023/12/19 08:35:22;;;;;;;8.18;4.60;;;;;;;;;;4975814;28;20375;-67
2023/12/19 08:37:48;;;;;;;6.43;4.43;;;;;;;;;;4975506;28;20043;-67
2023/12/19 08:40:14;;;;;;;6.18;4.50;;;;;;;;;;4975704;28;20058;-67
2023/12/19 08:42:40;;;;;;;7.05;4.55;;;;;;;;;;4975816;28;20027;-67
2023/12/19 08:45:14;;;;;;;5.70;4.57;;;;;;;;;;4975348;28;20031;-69
2023/12/19 08:47:40;;;;;;;7.68;4.40;;;;;;;;;;4975466;28;20030;-67
2023/12/19 08:50:08;;;;;;;6.45;4.60;;;;;;;;;;4975309;28;20181;-66
2023/12/19 08:52:37;;;;;;;6.28;4.60;;;;;;;;;;4979601;28;20546;-67
2023/12/19 08:55:06;;;;;;;7.07;4.70;;;;;;;;;;4986072;28;20014;-67
2023/12/19 08:57:40;;;;;;;8.65;4.72;;;;;;;;;;4983102;28;20038;-67
2023/12/19 09:00:06;;;;;;;7.85;4.60;;;;;;;;;;4975136;28;20182;-68
2023/12/19 09:02:32;;;;;;;7.03;4.32;;;;;;;;;;4975053;28;20034;-68
2023/12/19 09:04:57;;;;;;;12.63;7.50;;;;;;;;;;4980450;28;20022;-68
2023/12/19 09:07:23;;;;;;;13.52;7.80;;;;;;;;;;4977454;28;20027;-69
2023/12/19 09:09:49;;;;;;;9.82;6.30;;;;;;;;;;4974959;28;20089;-67
2023/12/19 09:12:14;;;;;;;11.38;6.88;;;;;;;;;;4975015;28;20066;-67
2023/12/19 09:14:41;;;;;;;13.57;6.88;;;;;;;;;;4975163;28;20037;-72
2023/12/19 09:17:06;;;;;;;12.85;7.65;;;;;;;;;;4977855;28;20033;-74
2023/12/19 09:19:34;;;;;;;10.90;7.38;;;;;;;;;;4985003;28;20039;-76
2023/12/19 09:22:00;;;;;;;11.77;7.32;;;;;;;;;;4991324;28;20364;-73
2023/12/19 09:24:30;;;;;;;12.80;7.70;;;;;;;;;;4994073;28;20026;-67
2023/12/19 09:26:58;;;;;;;16.80;8.13;;;;;;;;;;4993953;28;20046;-67
2023/12/19 09:29:25;;;;;;;18.73;7.70;;;;;;;;;;4992320;28;20022;-67
2023/12/19 09:31:51;;;;;;;12.52;8.10;;;;;;;;;;4993480;28;20133;-67
2023/12/19 09:34:18;;;;;;;12.40;8.30;;;;;;;;;;4994823;28;20034;-67
2023/12/19 09:36:44;;;;;;;11.18;8.15;;;;;;;;;;4992476;28;20105;-67
2023/12/19 09:39:11;;;;;;;14.05;8.63;;;;;;;;;;4993789;28;20537;-67
2023/12/19 09:41:37;;;;;;;10.85;7.53;;;;;;;;;;4994655;28;20053;-67
2023/12/19 09:44:03;;;;;;;10.85;7.90;;;;;;;;;;4994170;28;20496;-67
2023/12/19 09:46:33;;;;;;;13.23;7.63;;;;;;;;;;4993805;28;20061;-67
2023/12/19 09:49:00;;;;;;;15.65;7.82;;;;;;;;;;4993949;28;20026;-67
2023/12/19 09:51:32;;;;;;;12.45;8.65;;;;;;;;;;4994788;28;20066;-67
2023/12/19 09:54:01;;;;;;;14.32;7.82;;;;;;;;;;4993706;28;20019;-68
2023/12/19 09:56:28;;;;;;;10.25;7.82;;;;;;;;;;4993761;28;20454;-67
2023/12/19 09:59:00;;;;;;;13.15;7.82;;;;;;;;;;4993458;28;20038;-67
2023/12/19 10:01:26;;;;;;;11.23;7.72;;;;;;;;;;4993455;28;20061;-67
2023/12/19 10:03:55;;;;;;;11.02;7.55;;;;;;;;;;4993389;28;20054;-67
2023/12/19 10:06:24;;;;;;;12.25;7.47;;;;;;;;;;4993540;28;20035;-67
2023/12/19 10:08:53;;;;;;;11.85;8.05;;;;;;;;;;4993649;28;20018;-67
2023/12/19 10:11:21;;;;;;;11.52;7.25;;;;;;;;;;4993304;28;20037;-67
2023/12/19 10:13:47;;;;;;;10.15;7.57;;;;;;;;;;4993069;28;20030;-67
2023/12/19 10:16:22;;;;;;;13.68;8.02;;;;;;;;;;4993277;28;20019;-67
2023/12/19 10:18:59;;;;;;;9.90;7.47;;;;;;;;;;4993132;28;20062;-67
2023/12/19 10:21:28;;;;;;;10.10;7.28;;;;;;;;;;4993567;28;20043;-67
2023/12/19 10:24:06;;;;;;;10.77;7.18;;;;;;;;;;4993492;28;20031;-67
2023/12/19 10:26:33;;;;;;;10.60;7.15;;;;;;;;;;4993399;28;20096;-67
2023/12/19 10:28:59;;;;;;;10.07;7.28;;;;;;;;;;4994071;28;20053;-67
2023/12/19 10:31:24;;;;;;;12.38;7.78;;;;;;;;;;4993014;28;20054;-67
2023/12/19 10:33:54;;;;;;;10.32;7.43;;;;;;;;;;4975642;28;20030;-67
2023/12/19 10:36:30;;;;;;;9.90;7.37;;;;;;;;;;4993936;28;20057;-67
2023/12/19 10:39:00;;;;;;;12.82;7.70;;;;;;;;;;4992910;28;20038;-67
2023/12/19 10:41:27;;;;;;;10.82;7.38;;;;;;;;;;4993013;28;20093;-67
2023/12/19 10:43:57;;;;;;;9.18;6.78;;;;;;;;;;4992995;28;20054;-67
2023/12/19 10:46:26;;;;;;;11.68;6.93;;;;;;;;;;4993176;28;20092;-67
2023/12/19 10:48:57;;;;;;;10.38;7.57;;;;;;;;;;4993227;28;20034;-67
2023/12/19 10:51:41;;;;;;;12.93;7.72;;;;;;;;;;4993285;28;20062;-67
2023/12/19 10:54:14;;;;;;;10.85;7.38;;;;;;;;;;4993930;28;20023;-67
2023/12/19 10:56:59;;;;;;;10.30;7.10;;;;;;;;;;4993224;28;20105;-67
2023/12/19 10:59:52;;;;;;;13.27;7.32;;;;;;;;;;4992738;28;20023;-67
2023/12/19 11:02:24;;;;;;;11.25;7.60;;;;;;;;;;4992764;28;20026;-67
2023/12/19 11:05:10;;;;;;;10.05;7.15;;;;;;;;;;4992923;28;20316;-67
2023/12/19 11:07:37;;;;;;;10.45;6.80;;;;;;;;;;4992756;28;20475;-67
2023/12/19 11:10:05;;;;;;;9.30;7.18;;;;;;;;;;4994333;28;20526;-67
2023/12/19 11:12:32;;;;;;;10.43;7.30;;;;;;;;;;4992993;28;20019;-67
2023/12/19 11:14:57;;;;;;;10.32;6.65;;;;;;;;;;4992987;28;20371;-67
2023/12/19 11:17:30;;;;;;;12.25;7.88;;;;;;;;;;4992626;28;20038;-67
2023/12/19 11:20:09;;;;;;;11.77;6.85;;;;;;;;;;4975319;28;20117;-67
2023/12/19 11:23:06;;;;;;;9.47;6.73;;;;;;;;;;4992918;28;20416;-67
2023/12/19 11:25:35;;;;;;;11.65;7.03;;;;;;;;;;4992891;28;20040;-67
2023/12/19 11:28:02;;;;;;;10.02;6.95;;;;;;;;;;4992883;28;20034;-67
2023/12/19 11:30:31;;;;;;;10.43;6.88;;;;;;;;;;4993053;28;20026;-67
2023/12/19 11:32:57;;;;;;;11.15;7.13;;;;;;;;;;4992559;28;20054;-67
2023/12/19 11:35:27;;;;;;;9.75;6.60;;;;;;;;;;4992559;28;20037;-67
2023/12/19 11:38:12;;;;;;;;;;;;;;;;;;4993088;28;20065;-67
2023/12/19 11:40:44;;;;;;;8.48;6.70;;;;;;;;;;4995745;28;20259;-67
2023/12/19 11:43:10;;;;;;;8.88;6.38;;;;;;;;;;4996320;28;20039;-67
2023/12/19 11:45:37;;;;;;;8.85;6.70;;;;;;;;;;4996260;28;20372;-67
2023/12/19 11:48:38;;;;;;;9.10;6.88;;;;;;;;;;4996249;28;20041;-67
2023/12/19 11:51:11;;;;;;;9.30;6.82;;;;;;;;;;4995946;28;20126;-67
2023/12/19 11:53:37;;;;;;;8.25;6.50;;;;;;;;;;4996129;28;20034;-67
2023/12/19 11:56:08;;;;;;;7.90;6.72;;;;;;;;;;4995778;28;20026;-67
2023/12/19 11:58:34;;;;;;;11.25;7.35;;;;;;;;;;4996416;28;20038;-67
2023/12/19 12:01:01;;;;;;;12.32;6.90;;;;;;;;;;4996010;28;20031;-67
2023/12/19 12:03:27;;;;;;;10.57;6.90;;;;;;;;;;4995664;28;20038;-67
2023/12/19 12:05:53;;;;;;;9.80;6.45;;;;;;;;;;4995620;28;20019;-67
2023/12/19 12:08:22;;;;;;;11.63;7.03;;;;;;;;;;4995292;28;20030;-68
2023/12/19 12:11:17;;;;;;;9.07;6.90;;;;;;;;;;4995524;28;20034;-67
2023/12/19 12:13:59;;;;;;;9.32;6.97;;;;;;;;;;4979282;28;20383;-75
2023/12/19 12:16:37;;;;;;;11.80;7.85;;;;;;;;;;4996605;28;20057;-72
2023/12/19 12:19:16;;;;;;;11.13;7.70;;;;;;;;;;4996042;28;20032;-72
2023/12/19 12:21:52;;;;;;;11.80;8.70;;;;;;;;;;4995675;28;20018;-72
2023/12/19 12:24:25;;;;;;;15.02;7.30;;;;;;;;;;4995726;28;20030;-73
2023/12/19 12:26:51;;;;;;;11.90;8.75;;;;;;;;;;4995371;28;20027;-72
2023/12/19 12:29:19;;;;;;;15.00;10.00;;;;;;;;;;4998608;28;20033;-72
2023/12/19 12:31:48;;;;;;;22.15;10.32;;;;;;;;;;5000033;28;20022;-72
2023/12/19 12:34:17;;;;;;;18.75;10.25;;;;;;;;;;4979195;28;20045;-74
2023/12/19 12:36:47;;;;;;;14.93;10.07;;;;;;;;;;4996595;28;20411;-72
2023/12/19 12:39:19;;;;;;;18.20;10.63;;;;;;;;;;4996165;28;20109;-73
2023/12/19 12:41:44;;;;;;;13.85;9.77;;;;;;;;;;4996016;28;20022;-73
2023/12/19 12:44:11;;;;;;;21.58;10.05;;;;;;;;;;4996338;28;20475;-72
2023/12/19 12:46:46;;;;;;;17.77;9.00;;;;;;;;;;4996181;28;20035;-71
2023/12/19 12:49:21;;;;;;;14.40;8.88;;;;;;;;;;4997779;28;20105;-71
2023/12/19 12:51:47;;;;;;;20.63;10.00;;;;;;;;;;4998108;28;20394;-74
2023/12/19 12:54:18;;;;;;;18.63;9.30;;;;;;;;;;4999802;28;20092;-72
2023/12/19 12:56:44;;;;;;;16.70;9.43;;;;;;;;;;4996182;28;20030;-72
2023/12/19 12:59:14;;;;;;;17.77;9.45;;;;;;;;;;4998339;28;20108;-73
2023/12/19 13:01:41;;;;;;;14.45;10.38;;;;;;;;;;4977962;28;20364;-71
2023/12/19 13:04:07;;;;;;;15.63;9.82;;;;;;;;;;4977595;28;20053;-73
2023/12/19 13:06:41;;;;;;;17.58;10.93;;;;;;;;;;4995097;28;20018;-73
2023/12/19 13:09:14;;;;;;;20.27;11.63;;;;;;;;;;4970060;28;20113;-74
2023/12/19 13:11:47;;;;;;;15.40;11.90;;;;;;;;;;4985595;28;20027;-73
2023/12/19 13:14:14;;;;;;;19.70;13.55;;;;;;;;;;4982471;28;20026;-71
2023/12/19 13:16:41;;;;;;;19.85;13.85;;;;;;;;;;4976115;28;20027;-73
2023/12/19 13:19:07;;;;;;;17.35;13.95;;;;;;;;;;4979944;28;20126;-75
2023/12/19 13:21:33;;;;;;;17.90;14.52;;;;;;;;;;4976988;28;20463;-71
2023/12/19 13:23:58;;;;;;;17.23;14.07;;;;;;;;;;4959896;28;20035;-71
2023/12/19 13:26:29;;;;;;;21.45;15.90;;;;;;;;;;4979762;28;20050;-70
2023/12/19 13:28:59;;;;;;;22.67;17.48;;;;;;;;;;4981476;28;20031;-70
2023/12/19 13:31:26;;;;;;;24.53;16.73;;;;;;;;;;4976649;28;20023;-70
2023/12/19 13:33:52;;;;;;;25.05;17.35;;;;;;;;;;4974935;28;20027;-70
2023/12/19 13:36:19;;;;;;;24.90;17.50;;;;;;;;;;4974283;28;20108;-71
2023/12/19 13:38:47;;;;;;;23.50;17.65;;;;;;;;;;4975018;28;20085;-69
2023/12/19 13:41:15;;;;;;;26.42;17.67;;;;;;;;;;4975026;28;20471;-76
2023/12/19 13:43:41;;;;;;;22.77;17.20;;;;;;;;;;4975052;28;20030;-71
2023/12/19 13:46:07;;;;;;;21.98;16.38;;;;;;;;;;4976511;28;20026;-70
2023/12/19 13:48:34;;;;;;;25.45;17.33;;;;;;;;;;4979103;28;20109;-75
2023/12/19 13:50:59;;;;;;;23.13;16.30;;;;;;;;;;4974794;28;20066;-74
2023/12/19 13:53:25;;;;;;;22.30;16.83;;;;;;;;;;4975517;28;20027;-66
2023/12/19 13:55:50;;;;;;;25.25;15.95;;;;;;;;;;4974236;28;20027;-67
2023/12/19 13:58:16;;;;;;;21.60;15.60;;;;;;;;;;4974042;28;20460;-67
2023/12/19 14:00:42;;;;;;;22.98;17.88;;;;;;;;;;4956856;28;20121;-67
2023/12/19 14:03:10;;;;;;;24.40;17.13;;;;;;;;;;4973344;28;20033;-66
2023/12/19 14:05:35;;;;;;;23.90;17.25;;;;;;;;;;4988520;28;20026;-69
2023/12/19 14:08:01;;;;;;;23.00;16.52;;;;;;;;;;4993449;28;20045;-66
2023/12/19 14:10:29;;;;;;;27.38;17.38;;;;;;;;;;4993714;28;20026;-65
2023/12/19 14:12:55;;;;;;;20.85;15.90;;;;;;;;;;4993608;28;20018;-66
2023/12/19 14:15:22;;;;;;;22.85;17.52;;;;;;;;;;4993648;28;20029;-66
2023/12/19 14:17:48;;;;;;;25.23;17.52;;;;;;;;;;4993378;28;20022;-66
2023/12/19 14:20:14;;;;;;;21.10;16.80;;;;;;;;;;4993151;28;20030;-66
2023/12/19 14:22:40;;;;;;;27.80;18.17;;;;;;;;;;4993841;28;20030;-66
2023/12/19 14:25:07;;;;;;;21.63;17.38;;;;;;;;;;4993209;28;20026;-65
2023/12/19 14:27:32;;;;;;;22.25;16.70;;;;;;;;;;4993120;28;20069;-65
2023/12/19 14:29:58;;;;;;;24.35;18.13;;;;;;;;;;4993227;28;20423;-66
2023/12/19 14:32:24;;;;;;;23.40;17.23;;;;;;;;;;4993159;28;20031;-66
2023/12/19 14:34:49;;;;;;;22.08;17.52;;;;;;;;;;4993076;28;20432;-66
2023/12/19 14:37:15;;;;;;;27.75;17.85;;;;;;;;;;4992925;28;20089;-66
2023/12/19 14:39:41;;;;;;;22.63;16.77;;;;;;;;;;4992956;28;20042;-66
2023/12/19 14:42:07;;;;;;;22.98;17.35;;;;;;;;;;4992911;28;20066;-66
2023/12/19 14:44:36;;;;;;;22.20;16.92;;;;;;;;;;4993329;28;20023;-65
2023/12/19 14:47:02;;;;;;;22.65;17.00;;;;;;;;;;4993250;28;20097;-70
2023/12/19 14:49:27;;;;;;;22.45;16.83;;;;;;;;;;4993027;28;20518;-65
2023/12/19 14:51:53;;;;;;;25.80;17.20;;;;;;;;;;4993044;28;20034;-65
2023/12/19 14:54:18;;;;;;;24.30;16.75;;;;;;;;;;4993134;28;20030;-66
2023/12/19 14:56:44;;;;;;;21.48;15.57;;;;;;;;;;4993076;28;20471;-65
2023/12/19 14:59:09;;;;;;;28.40;16.40;;;;;;;;;;4993033;28;20054;-73
2023/12/19 15:01:35;;;;;;;31.15;16.67;;;;;;;;;;4993122;28;20023;-65
2023/12/19 15:04:01;;;;;;;23.38;15.98;;;;;;;;;;4992898;28;20029;-65
2023/12/19 15:06:26;;;;;;;22.48;15.07;;;;;;;;;;4992985;28;20541;-64
2023/12/19 15:08:52;;;;;;;23.20;17.25;;;;;;;;;;4993195;28;20030;-65
2023/12/19 15:11:17;;;;;;;22.45;16.00;;;;;;;;;;4992921;28;20126;-73
2023/12/19 15:13:43;;;;;;;27.48;17.38;;;;;;;;;;4993569;28;20037;-67
2023/12/19 15:16:12;;;;;;;26.13;16.70;;;;;;;;;;4996545;28;20121;-66
2023/12/19 15:18:38;;;;;;;25.05;16.05;;;;;;;;;;4996669;28;20042;-66
2023/12/19 15:21:04;;;;;;;24.65;15.80;;;;;;;;;;4996772;28;20061;-67
2023/12/19 15:23:30;;;;;;;24.35;16.23;;;;;;;;;;4996470;28;20061;-66
2023/12/19 15:25:55;;;;;;;24.63;17.90;;;;;;;;;;4996427;28;20054;-67
2023/12/19 15:28:21;;;;;;;23.48;17.13;;;;;;;;;;4996389;28;20057;-67
2023/12/19 15:30:46;;;;;;;20.95;15.35;;;;;;;;;;4996236;28;20073;-67
2023/12/19 15:33:15;;;;;;;27.33;17.13;;;;;;;;;;4996290;28;20022;-66
2023/12/19 15:35:41;;;;;;;26.60;14.95;;;;;;;;;;4996270;28;20033;-66
2023/12/19 15:38:07;;;;;;;25.45;17.05;;;;;;;;;;4996075;28;20030;-66
2023/12/19 15:40:32;;;;;;;26.48;16.30;;;;;;;;;;4995979;28;20023;-69
2023/12/19 15:42:58;;;;;;;27.70;16.80;;;;;;;;;;4996253;28;20125;-67
2023/12/19 15:45:24;;;;;;;26.52;16.98;;;;;;;;;;4978548;28;20145;-66
2023/12/19 15:47:50;;;;;;;23.30;16.73;;;;;;;;;;4996023;28;20027;-67
2023/12/19 15:50:15;;;;;;;30.38;16.83;;;;;;;;;;4996024;28;20061;-67
2023/12/19 15:52:41;;;;;;;27.80;18.00;;;;;;;;;;4995893;28;20105;-67
2023/12/19 15:55:07;;;;;;;27.02;18.10;;;;;;;;;;4996001;28;20036;-67
2023/12/19 15:57:33;;;;;;;23.08;17.50;;;;;;;;;;4995902;28;20050;-67
2023/12/19 15:59:59;;;;;;;28.17;17.75;;;;;;;;;;4995947;28;20061;-67
2023/12/19 16:02:24;;;;;;;22.77;17.00;;;;;;;;;;4995840;28;20029;-67
2023/12/19 16:04:50;;;;;;;27.73;17.83;;;;;;;;;;4996002;28;20105;-67
2023/12/19 16:07:16;;;;;;;29.85;18.58;;;;;;;;;;4995692;28;20562;-67
2023/12/19 16:09:42;;;;;;;30.55;18.83;;;;;;;;;;4978170;28;20427;-67
2023/12/19 16:12:09;;;;;;;26.48;18.27;;;;;;;;;;4995557;28;20030;-75
2023/12/19 16:14:35;;;;;;;26.30;17.63;;;;;;;;;;4995653;28;20038;-67
2023/12/19 16:17:02;;;;;;;28.25;18.67;;;;;;;;;;4978059;28;20541;-68
2023/12/19 16:19:28;;;;;;;29.80;20.50;;;;;;;;;;4995560;28;20030;-67
2023/12/19 16:21:53;;;;;;;24.52;17.92;;;;;;;;;;4995693;28;20613;-67
2023/12/19 16:24:19;;;;;;;26.95;18.48;;;;;;;;;;4978282;28;20109;-68
2023/12/19 16:26:45;;;;;;;21.92;17.65;;;;;;;;;;4994434;28;20027;-67
2023/12/19 16:29:10;;;;;;;25.35;18.42;;;;;;;;;;4995140;28;20026;-67
2023/12/19 16:31:39;;;;;;;27.27;18.65;;;;;;;;;;4995245;28;20037;-67
2023/12/19 16:34:06;;;;;;;29.08;18.65;;;;;;;;;;4995163;28;20533;-67
2023/12/19 16:36:33;;;;;;;29.85;19.23;;;;;;;;;;4977462;28;20084;-67
2023/12/19 16:38:59;;;;;;;24.73;18.38;;;;;;;;;;4995106;28;20364;-66
2023/12/19 16:41:28;;;;;;;29.00;19.02;;;;;;;;;;4994965;28;20088;-67
2023/12/19 16:43:53;;;;;;;25.27;17.75;;;;;;;;;;4995133;28;20026;-67
2023/12/19 16:46:19;;;;;;;23.83;18.10;;;;;;;;;;4995017;28;20542;-67
2023/12/19 16:48:45;;;;;;;30.92;17.30;;;;;;;;;;4994894;28;20031;-66
2023/12/19 16:51:10;;;;;;;28.95;18.10;;;;;;;;;;4994891;28;20101;-67
2023/12/19 16:53:36;;;;;;;25.33;17.23;;;;;;;;;;4994648;28;20032;-66
2023/12/19 16:56:01;;;;;;;23.52;16.92;;;;;;;;;;4994796;28;20430;-67
2023/12/19 16:58:27;;;;;;;24.40;18.42;;;;;;;;;;4994556;28;20031;-66
2023/12/19 17:00:53;;;;;;;26.05;17.42;;;;;;;;;;4994584;28;20101;-75
2023/12/19 17:03:18;;;;;;;24.85;17.27;;;;;;;;;;4994543;28;20064;-66
2023/12/19 17:05:44;;;;;;;25.83;17.27;;;;;;;;;;4994611;28;20046;-69
2023/12/19 17:08:09;;;;;;;26.83;17.85;;;;;;;;;;4995134;28;20022;-67
2023/12/19 17:10:35;;;;;;;23.60;16.88;;;;;;;;;;4995120;28;20391;-67
2023/12/19 17:13:02;;;;;;;23.08;17.00;;;;;;;;;;4994556;28;20113;-67
2023/12/19 17:15:28;;;;;;;25.02;16.13;;;;;;;;;;4994797;28;20022;-68
2023/12/19 17:17:55;;;;;;;28.88;17.05;;;;;;;;;;4994089;28;20030;-67
2023/12/19 17:20:21;;;;;;;22.40;16.00;;;;;;;;;;4975868;28;20062;-68
2023/12/19 17:22:47;;;;;;;21.88;15.77;;;;;;;;;;4974716;28;20027;-67
2023/12/19 17:25:13;;;;;;;21.10;15.18;;;;;;;;;;4974666;28;20027;-67
2023/12/19 17:27:38;;;;;;;21.58;15.50;;;;;;;;;;4974647;28;20038;-68
2023/12/19 17:30:04;;;;;;;24.63;15.73;;;;;;;;;;4974793;28;20034;-68
2023/12/19 17:32:31;;;;;;;21.75;15.23;;;;;;;;;;4974520;28;20105;-68
2023/12/19 17:34:57;;;;;;;20.10;14.63;;;;;;;;;;4974802;28;20109;-67
2023/12/19 17:37:23;;;;;;;23.23;15.40;;;;;;;;;;4974130;28;20125;-68
2023/12/19 17:39:48;;;;;;;21.27;14.27;;;;;;;;;;4974270;28;20112;-67
2023/12/19 17:42:14;;;;;;;25.45;15.65;;;;;;;;;;4974237;28;20058;-69
2023/12/19 17:44:39;;;;;;;29.50;16.27;;;;;;;;;;4974373;28;20062;-67
2023/12/19 17:47:05;;;;;;;19.65;14.32;;;;;;;;;;4974191;28;20363;-70
2023/12/19 17:49:31;;;;;;;19.67;14.88;;;;;;;;;;4974326;28;20027;-68
2023/12/19 17:51:57;;;;;;;21.58;13.75;;;;;;;;;;4974234;28;20110;-71
2023/12/19 17:54:22;;;;;;;25.20;13.88;;;;;;;;;;4974197;28;20019;-69
2023/12/19 17:56:48;;;;;;;21.77;14.80;;;;;;;;;;4974204;28;20081;-70
2023/12/19 17:59:14;;;;;;;18.80;14.35;;;;;;;;;;4974197;28;20031;-69
2023/12/19 18:01:44;;;;;;;17.98;13.85;;;;;;;;;;4956616;28;20038;-70
2023/12/19 18:04:10;;;;;;;17.70;14.40;;;;;;;;;;4974174;28;20074;-69
2023/12/19 18:06:35;;;;;;;18.83;12.90;;;;;;;;;;4956874;28;20035;-68
2023/12/19 18:09:04;;;;;;;20.40;13.75;;;;;;;;;;4973910;28;20027;-69
2023/12/19 18:11:30;;;;;;;23.05;13.50;;;;;;;;;;4974034;28;20023;-69
2023/12/19 18:13:55;;;;;;;22.80;14.20;;;;;;;;;;4974019;28;20153;-68
2023/12/19 18:16:21;;;;;;;22.20;13.40;;;;;;;;;;4988861;28;20026;-69
2023/12/19 18:18:46;;;;;;;19.88;13.63;;;;;;;;;;4993589;28;20117;-68
2023/12/19 18:21:12;;;;;;;20.55;12.95;;;;;;;;;;4993126;28;20029;-69
2023/12/19 18:23:38;;;;;;;20.98;12.85;;;;;;;;;;4992993;28;20030;-68
2023/12/19 18:26:07;;;;;;;18.20;13.07;;;;;;;;;;4993108;28;20049;-70
2023/12/19 18:28:33;;;;;;;18.95;12.88;;;;;;;;;;4993053;28;20057;-69
2023/12/19 18:30:59;;;;;;;20.13;12.65;;;;;;;;;;4993109;28;20023;-70
2023/12/19 18:33:25;;;;;;;21.38;13.10;;;;;;;;;;4993116;28;20029;-69
2023/12/19 18:35:52;;;;;;;21.25;12.73;;;;;;;;;;4992728;28;20141;-69
2023/12/19 18:38:19;;;;;;;17.40;12.52;;;;;;;;;;4992833;28;20034;-72
2023/12/19 18:40:45;;;;;;;20.83;12.88;;;;;;;;;;4993063;28;20026;-70
2023/12/19 18:43:10;;;;;;;21.63;12.77;;;;;;;;;;4992739;28;20033;-68
2023/12/19 18:45:37;;;;;;;22.17;13.45;;;;;;;;;;4992244;28;20046;-72
2023/12/19 18:48:03;;;;;;;20.85;13.55;;;;;;;;;;4991655;28;20031;-70
2023/12/19 18:50:29;;;;;;;17.80;12.77;;;;;;;;;;4995185;28;20072;-70
2023/12/19 18:52:54;;;;;;;17.60;12.93;;;;;;;;;;4995671;28;20769;-70
2023/12/19 18:55:22;;;;;;;19.40;13.15;;;;;;;;;;4995268;28;20034;-68
2023/12/19 18:57:47;;;;;;;20.02;12.80;;;;;;;;;;4995638;28;20114;-68
2023/12/19 19:00:14;;;;;;;18.60;12.40;;;;;;;;;;4995351;28;20133;-68
2023/12/19 19:02:39;;;;;;;19.35;12.65;;;;;;;;;;4995159;28;20026;-68
2023/12/19 19:05:05;;;;;;;18.73;12.77;;;;;;;;;;4996675;28;20026;-68
2023/12/19 19:07:31;;;;;;;18.52;12.95;;;;;;;;;;4996792;28;20031;-67
2023/12/19 19:09:58;;;;;;;19.42;13.25;;;;;;;;;;4996606;28;20037;-68
2023/12/19 19:12:24;;;;;;;15.80;11.48;;;;;;;;;;4996636;28;20132;-69
2023/12/19 19:14:50;;;;;;;18.27;11.75;;;;;;;;;;4996626;28;20022;-68
2023/12/19 19:17:15;;;;;;;16.65;11.98;;;;;;;;;;4996503;28;20360;-71
2023/12/19 19:19:42;;;;;;;17.70;12.00;;;;;;;;;;4996309;28;20109;-71
2023/12/19 19:22:08;;;;;;;18.50;11.88;;;;;;;;;;4996496;28;20033;-67
2023/12/19 19:24:33;;;;;;;16.08;13.32;;;;;;;;;;4996540;28;20034;-66
2023/12/19 19:26:59;;;;;;;17.58;12.50;;;;;;;;;;4996429;28;20033;-66
2023/12/19 19:29:25;;;;;;;17.08;13.27;;;;;;;;;;4996356;28;20044;-66
2023/12/19 19:31:51;;;;;;;16.45;12.18;;;;;;;;;;4996433;28;20026;-66
2023/12/19 19:34:20;;;;;;;17.27;12.70;;;;;;;;;;4996256;28;20030;-67
2023/12/19 19:36:51;;;;;;;17.00;12.45;;;;;;;;;;4995954;28;20042;-70
2023/12/19 19:39:18;;;;;;;17.38;12.50;;;;;;;;;;4996141;28;20514;-66
2023/12/19 19:41:44;;;;;;;18.33;11.88;;;;;;;;;;4996131;28;20518;-67
2023/12/19 19:44:10;;;;;;;15.07;11.75;;;;;;;;;;4996427;28;20414;-68
2023/12/19 19:46:39;;;;;;;15.80;11.35;;;;;;;;;;4995999;28;20113;-67
2023/12/19 19:49:10;;;;;;;16.83;11.80;;;;;;;;;;4996036;28;20034;-67
2023/12/19 19:51:37;;;;;;;16.23;12.40;;;;;;;;;;4978609;28;20022;-67
2023/12/19 19:54:02;;;;;;;21.00;11.55;;;;;;;;;;4996274;28;20100;-67
2023/12/19 19:56:28;;;;;;;18.83;11.88;;;;;;;;;;4996163;28;20475;-67
2023/12/19 19:58:54;;;;;;;16.63;11.13;;;;;;;;;;4978465;28;20038;-67
2023/12/19 20:01:20;;;;;;;15.85;11.60;;;;;;;;;;4994381;28;20026;-67
2023/12/19 20:03:46;;;;;;;15.80;11.60;;;;;;;;;;4978269;28;20096;-67
2023/12/19 20:06:16;;;;;;;15.90;12.05;;;;;;;;;;4995669;28;20463;-67
2023/12/19 20:08:42;;;;;;;15.93;11.90;;;;;;;;;;4995878;28;20111;-68
2023/12/19 20:11:08;;;;;;;17.10;11.35;;;;;;;;;;4995581;28;20038;-67
2023/12/19 20:13:34;;;;;;;16.60;11.40;;;;;;;;;;4995556;28;20664;-68
2023/12/19 20:16:00;;;;;;;14.43;11.90;;;;;;;;;;4995472;28;20038;-67
2023/12/19 20:18:26;;;;;;;16.20;11.40;;;;;;;;;;4995261;28;20082;-67